ADDS METAR Data INFO
IDs: Format: Raw Decoded Include TAF

Data at: 2254 UTC 22 Jun 2018

KSMO 222251Z 23010G15KT 10SM BKN011 20/16 A2983 RMK AO2 SLP099 T02000156
KSMO 222151Z COR 23007KT 9SM BKN011 20/16 A2985 RMK AO2 SLP105 T02000156
KSMO 222051Z 22007KT 7SM OVC011 21/16 A2987 RMK AO2 SLP111 T02060156 58016
KSMO 221951Z 24008KT 9SM OVC011 21/16 A2989 RMK AO2 SLP118 T02060156
KSMO 221851Z 23007KT 8SM OVC012 19/16 A2990 RMK AO2 SLP124 T01940156
KSMO 221751Z 23005KT 7SM OVC011 19/16 A2991 RMK AO2 SLP129 T01890156 10189 20172 58000
KSMO 221742Z 22004KT 7SM OVC011 19/16 A2992 RMK AO2 T01890156
KSMO 221651Z 21006KT 5SM HZ OVC009 18/16 A2992 RMK AO2 SLP131 T01830156
KSMO 221551Z 25005KT 5SM BR OVC008 18/16 A2993 RMK AO2 SLP133 T01780156
KSMO 221451Z 23004KT 4SM BR OVC008 17/16 A2992 RMK AO2 SLP129 T01720156 53005
KSMO 221351Z AUTO 00000KT 4SM BR OVC007 17/16 A2991 RMK AO2 SLP126 T01720156
KSMO 221251Z AUTO 00000KT 5SM BR OVC007 17/16 A2990 RMK AO2 SLP124 T01720156
KSMO 221151Z AUTO 00000KT 5SM BR OVC007 17/16 A2990 RMK AO2 SLP124 T01720156 10172 20167 56006
KSMO 221051Z AUTO 00000KT 6SM BR OVC006 17/16 A2990 RMK AO2 SLP124 T01720156
KSMO 220951Z AUTO VRB03KT 7SM OVC006 17/16 A2991 RMK AO2 SLP126 T01720156
KSMO 220851Z AUTO 00000KT 7SM OVC006 17/16 A2992 RMK AO2 SLP130 T01720156 58004
KSMO 220751Z AUTO 24003KT 8SM OVC005 17/16 A2993 RMK AO2 SLP132 T01670156 402170167
KSMO 220651Z AUTO 00000KT 9SM OVC005 17/16 A2993 RMK AO2 SLP133 T01670156
KSMO 220551Z AUTO 00000KT 10SM OVC006 17/15 A2993 RMK AO2 SLP135 T01720150 10194 20167 51007
KSMO 220451Z AUTO 00000KT 10SM OVC007 17/16 A2993 RMK AO2 SLP135 T01720156
KSMO 220351Z AUTO 25004KT 10SM OVC006 17/15 A2992 RMK AO2 SLP130 T01720150
KSMO 220251Z 25004KT 10SM OVC007 18/16 A2991 RMK AO2 SLP127 T01780156 53002
KSMO 220151Z 25005KT 10SM OVC008 18/16 A2990 RMK AO2 SLP125 T01830156
KSMO 220051Z 22007KT 9SM OVC008 18/16 A2990 RMK AO2 SLP124 T01830156
KSMO 220017Z AUTO 24007KT 9SM OVC009 19/16 A2990 RMK AO2 T01890156
KSMO 212351Z 25008KT 9SM OVC010 19/16 A2991 RMK AO2 SLP125 T01940156 10217 20194 56013
KSMO 212316Z 23008KT 9SM BKN012 21/16 A2991 RMK AO2 T02060156
KSMO 212251Z 23008KT 10SM FEW013 21/16 A2991 RMK AO2 SLP127 T02110156
KSMO 212151Z 25008KT 7SM SCT014 21/16 A2993 RMK AO2 SLP132 T02110156
KSMO 212114Z 24009KT 6SM HZ SCT014 22/16 A2994 RMK AO2 T02170156
KSMO 212051Z 22007KT 6SM HZ BKN014 21/16 A2994 RMK AO2 SLP138 T02060156 58006
KSMO 211951Z 22007KT 190V250 7SM BKN014 21/16 A2996 RMK AO2 SLP142 T02060156
KSMO 211851Z VRB06KT 7SM OVC017 21/16 A2996 RMK AO2 SLP144 T02060156
KSMO 211751Z 21007KT 6SM HZ OVC015 19/16 A2996 RMK AO2 SLP145 T01940156 10194 20172 53004
KSMO 211651Z VRB03KT 6SM HZ OVC015 19/16 A2996 RMK AO2 SLP144 T01890156
KSMO 211551Z 00000KT 6SM HZ OVC013 18/15 A2995 RMK AO2 SLP142 T01830150
KSMO 211451Z 19003KT 6SM HZ OVC012 18/15 A2995 RMK AO2 SLP142 T01780150 53010 $
KSMO 211351Z 00000KT 5SM HZ OVC012 18/15 A2994 RMK AO2 SLP137 T01780150 $
KSMO 211251Z AUTO 00000KT 7SM OVC011 18/15 A2992 RMK AO2 SLP132 T01780150 $
KSMO 211151Z AUTO 00000KT 7SM OVC011 18/15 A2992 RMK AO2 SLP130 T01780150 10183 20172 55003 $